sensor_id;sensor_type;location;lat;lon;timestamp;P1;durP1;ratioP1;P2;durP2;ratioP2
19788;SDS011;10054;59.332;18.244;2023-04-30T00:00:01;0.57;;;0.57;;
19788;SDS011;10054;59.332;18.244;2023-04-30T00:02:33;1.43;;;0.57;;
19788;SDS011;10054;59.332;18.244;2023-04-30T00:05:02;2.73;;;0.40;;
19788;SDS011;10054;59.332;18.244;2023-04-30T00:07:31;0.50;;;0.50;;
19788;SDS011;10054;59.332;18.244;2023-04-30T00:10:00;0.37;;;0.37;;
19788;SDS011;10054;59.332;18.244;2023-04-30T00:14:59;0.50;;;0.50;;
19788;SDS011;10054;59.332;18.244;2023-04-30T00:17:28;0.60;;;0.60;;
19788;SDS011;10054;59.332;18.244;2023-04-30T00:19:57;0.40;;;0.40;;
19788;SDS011;10054;59.332;18.244;2023-04-30T00:22:26;0.43;;;0.40;;
19788;SDS011;10054;59.332;18.244;2023-04-30T00:24:55;0.50;;;0.50;;
19788;SDS011;10054;59.332;18.244;2023-04-30T00:27:24;0.40;;;0.40;;
19788;SDS011;10054;59.332;18.244;2023-04-30T00:29:53;0.53;;;0.53;;
19788;SDS011;10054;59.332;18.244;2023-04-30T00:32:22;0.73;;;0.50;;
19788;SDS011;10054;59.332;18.244;2023-04-30T00:34:52;0.50;;;0.50;;
19788;SDS011;10054;59.332;18.244;2023-04-30T00:37:21;0.40;;;0.40;;
19788;SDS011;10054;59.332;18.244;2023-04-30T00:39:50;0.40;;;0.40;;
19788;SDS011;10054;59.332;18.244;2023-04-30T00:42:20;0.60;;;0.60;;
19788;SDS011;10054;59.332;18.244;2023-04-30T00:44:48;0.30;;;0.30;;
19788;SDS011;10054;59.332;18.244;2023-04-30T00:47:18;0.37;;;0.37;;
19788;SDS011;10054;59.332;18.244;2023-04-30T00:49:47;0.30;;;0.30;;
19788;SDS011;10054;59.332;18.244;2023-04-30T00:52:16;0.50;;;0.50;;
19788;SDS011;10054;59.332;18.244;2023-04-30T00:54:45;0.40;;;0.40;;
19788;SDS011;10054;59.332;18.244;2023-04-30T00:57:14;0.50;;;0.50;;
19788;SDS011;10054;59.332;18.244;2023-04-30T00:59:44;0.40;;;0.40;;
19788;SDS011;10054;59.332;18.244;2023-04-30T01:02:13;0.40;;;0.40;;
19788;SDS011;10054;59.332;18.244;2023-04-30T01:04:43;0.40;;;0.40;;
19788;SDS011;10054;59.332;18.244;2023-04-30T01:07:13;0.40;;;0.40;;
19788;SDS011;10054;59.332;18.244;2023-04-30T01:09:42;0.63;;;0.50;;
19788;SDS011;10054;59.332;18.244;2023-04-30T01:12:20;0.40;;;0.40;;
19788;SDS011;10054;59.332;18.244;2023-04-30T01:17:53;0.50;;;0.50;;
19788;SDS011;10054;59.332;18.244;2023-04-30T01:20:25;0.50;;;0.50;;
19788;SDS011;10054;59.332;18.244;2023-04-30T01:23:01;0.43;;;0.43;;
19788;SDS011;10054;59.332;18.244;2023-04-30T01:25:35;0.70;;;0.70;;
19788;SDS011;10054;59.332;18.244;2023-04-30T01:28:18;0.60;;;0.60;;
19788;SDS011;10054;59.332;18.244;2023-04-30T01:30:44;0.60;;;0.60;;
19788;SDS011;10054;59.332;18.244;2023-04-30T01:33:13;0.53;;;0.30;;
19788;SDS011;10054;59.332;18.244;2023-04-30T01:35:54;0.60;;;0.60;;
19788;SDS011;10054;59.332;18.244;2023-04-30T01:38:31;0.40;;;0.40;;
19788;SDS011;10054;59.332;18.244;2023-04-30T01:46:49;0.50;;;0.50;;
19788;SDS011;10054;59.332;18.244;2023-04-30T01:49:24;0.50;;;0.50;;
19788;SDS011;10054;59.332;18.244;2023-04-30T01:52:15;0.60;;;0.60;;
19788;SDS011;10054;59.332;18.244;2023-04-30T01:54:59;2.07;;;0.57;;
19788;SDS011;10054;59.332;18.244;2023-04-30T01:57:34;0.50;;;0.50;;
19788;SDS011;10054;59.332;18.244;2023-04-30T02:00:07;0.40;;;0.40;;
19788;SDS011;10054;59.332;18.244;2023-04-30T02:02:39;0.57;;;0.50;;
19788;SDS011;10054;59.332;18.244;2023-04-30T02:05:08;0.40;;;0.40;;
19788;SDS011;10054;59.332;18.244;2023-04-30T02:07:38;0.50;;;0.50;;
19788;SDS011;10054;59.332;18.244;2023-04-30T02:10:08;0.50;;;0.50;;
19788;SDS011;10054;59.332;18.244;2023-04-30T02:12:38;0.40;;;0.40;;
19788;SDS011;10054;59.332;18.244;2023-04-30T02:15:07;0.50;;;0.50;;
19788;SDS011;10054;59.332;18.244;2023-04-30T02:17:38;1.03;;;0.60;;
19788;SDS011;10054;59.332;18.244;2023-04-30T02:20:07;0.60;;;0.60;;
19788;SDS011;10054;59.332;18.244;2023-04-30T02:22:37;0.50;;;0.50;;
19788;SDS011;10054;59.332;18.244;2023-04-30T02:25:06;0.50;;;0.50;;
19788;SDS011;10054;59.332;18.244;2023-04-30T02:27:37;0.50;;;0.50;;
19788;SDS011;10054;59.332;18.244;2023-04-30T02:30:06;0.50;;;0.50;;
19788;SDS011;10054;59.332;18.244;2023-04-30T02:32:35;0.70;;;0.50;;
19788;SDS011;10054;59.332;18.244;2023-04-30T02:35:04;0.50;;;0.50;;
19788;SDS011;10054;59.332;18.244;2023-04-30T02:37:33;0.50;;;0.50;;
19788;SDS011;10054;59.332;18.244;2023-04-30T02:40:02;0.50;;;0.50;;
19788;SDS011;10054;59.332;18.244;2023-04-30T02:42:33;0.47;;;0.47;;
19788;SDS011;10054;59.332;18.244;2023-04-30T02:45:02;0.50;;;0.50;;
19788;SDS011;10054;59.332;18.244;2023-04-30T02:47:32;0.47;;;0.47;;
19788;SDS011;10054;59.332;18.244;2023-04-30T02:50:01;0.37;;;0.37;;
19788;SDS011;10054;59.332;18.244;2023-04-30T02:52:31;0.50;;;0.50;;
19788;SDS011;10054;59.332;18.244;2023-04-30T02:55:00;0.40;;;0.40;;
19788;SDS011;10054;59.332;18.244;2023-04-30T02:57:29;0.50;;;0.50;;
19788;SDS011;10054;59.332;18.244;2023-04-30T02:59:59;0.50;;;0.50;;
19788;SDS011;10054;59.332;18.244;2023-04-30T03:02:28;1.10;;;0.50;;
19788;SDS011;10054;59.332;18.244;2023-04-30T03:04:57;2.20;;;0.50;;
19788;SDS011;10054;59.332;18.244;2023-04-30T03:07:25;0.40;;;0.40;;
19788;SDS011;10054;59.332;18.244;2023-04-30T03:09:54;0.93;;;0.50;;
19788;SDS011;10054;59.332;18.244;2023-04-30T03:12:23;0.40;;;0.40;;
19788;SDS011;10054;59.332;18.244;2023-04-30T03:14:52;0.40;;;0.40;;
19788;SDS011;10054;59.332;18.244;2023-04-30T03:17:20;0.50;;;0.50;;
19788;SDS011;10054;59.332;18.244;2023-04-30T03:19:50;0.50;;;0.50;;
19788;SDS011;10054;59.332;18.244;2023-04-30T03:22:19;0.83;;;0.53;;
19788;SDS011;10054;59.332;18.244;2023-04-30T03:24:49;0.47;;;0.47;;
19788;SDS011;10054;59.332;18.244;2023-04-30T03:27:18;0.43;;;0.40;;
19788;SDS011;10054;59.332;18.244;2023-04-30T03:29:48;0.40;;;0.40;;
19788;SDS011;10054;59.332;18.244;2023-04-30T03:32:18;0.40;;;0.40;;
19788;SDS011;10054;59.332;18.244;2023-04-30T03:34:46;0.37;;;0.37;;
19788;SDS011;10054;59.332;18.244;2023-04-30T03:37:15;0.40;;;0.40;;
19788;SDS011;10054;59.332;18.244;2023-04-30T03:39:44;0.40;;;0.40;;
19788;SDS011;10054;59.332;18.244;2023-04-30T03:42:13;0.50;;;0.50;;
19788;SDS011;10054;59.332;18.244;2023-04-30T03:44:42;0.40;;;0.40;;
19788;SDS011;10054;59.332;18.244;2023-04-30T03:47:10;0.40;;;0.40;;
19788;SDS011;10054;59.332;18.244;2023-04-30T03:49:40;0.40;;;0.40;;
19788;SDS011;10054;59.332;18.244;2023-04-30T03:52:09;1.27;;;0.50;;
19788;SDS011;10054;59.332;18.244;2023-04-30T03:54:38;0.30;;;0.30;;
19788;SDS011;10054;59.332;18.244;2023-04-30T03:57:07;0.40;;;0.40;;
19788;SDS011;10054;59.332;18.244;2023-04-30T03:59:36;0.50;;;0.50;;
19788;SDS011;10054;59.332;18.244;2023-04-30T04:02:05;0.23;;;0.23;;
19788;SDS011;10054;59.332;18.244;2023-04-30T04:04:34;0.40;;;0.40;;
19788;SDS011;10054;59.332;18.244;2023-04-30T04:07:03;0.60;;;0.47;;
19788;SDS011;10054;59.332;18.244;2023-04-30T04:09:33;0.47;;;0.47;;
19788;SDS011;10054;59.332;18.244;2023-04-30T04:12:03;0.50;;;0.50;;
19788;SDS011;10054;59.332;18.244;2023-04-30T04:14:32;0.50;;;0.50;;
19788;SDS011;10054;59.332;18.244;2023-04-30T04:17:01;0.67;;;0.30;;
19788;SDS011;10054;59.332;18.244;2023-04-30T04:19:32;0.53;;;0.50;;
19788;SDS011;10054;59.332;18.244;2023-04-30T04:22:01;0.43;;;0.43;;
19788;SDS011;10054;59.332;18.244;2023-04-30T04:24:30;0.47;;;0.47;;
19788;SDS011;10054;59.332;18.244;2023-04-30T04:26:59;0.40;;;0.40;;
19788;SDS011;10054;59.332;18.244;2023-04-30T04:29:31;1.07;;;0.60;;
19788;SDS011;10054;59.332;18.244;2023-04-30T04:32:00;0.60;;;0.43;;
19788;SDS011;10054;59.332;18.244;2023-04-30T04:34:31;0.67;;;0.50;;
19788;SDS011;10054;59.332;18.244;2023-04-30T04:37:00;0.40;;;0.40;;
19788;SDS011;10054;59.332;18.244;2023-04-30T04:39:29;0.50;;;0.50;;
19788;SDS011;10054;59.332;18.244;2023-04-30T04:41:58;0.70;;;0.50;;
19788;SDS011;10054;59.332;18.244;2023-04-30T04:44:28;0.53;;;0.50;;
19788;SDS011;10054;59.332;18.244;2023-04-30T04:46:58;0.40;;;0.40;;
19788;SDS011;10054;59.332;18.244;2023-04-30T04:49:30;0.87;;;0.50;;
19788;SDS011;10054;59.332;18.244;2023-04-30T04:52:01;0.97;;;0.40;;
19788;SDS011;10054;59.332;18.244;2023-04-30T04:54:32;0.77;;;0.50;;
19788;SDS011;10054;59.332;18.244;2023-04-30T04:57:01;0.43;;;0.43;;
19788;SDS011;10054;59.332;18.244;2023-04-30T04:59:30;0.60;;;0.60;;
19788;SDS011;10054;59.332;18.244;2023-04-30T05:01:59;1.50;;;0.50;;
19788;SDS011;10054;59.332;18.244;2023-04-30T05:04:28;0.50;;;0.50;;
19788;SDS011;10054;59.332;18.244;2023-04-30T05:06:57;1.37;;;0.57;;
19788;SDS011;10054;59.332;18.244;2023-04-30T05:09:26;1.37;;;0.50;;
19788;SDS011;10054;59.332;18.244;2023-04-30T05:11:55;0.30;;;0.30;;
19788;SDS011;10054;59.332;18.244;2023-04-30T05:14:24;1.07;;;0.50;;
19788;SDS011;10054;59.332;18.244;2023-04-30T05:16:52;0.47;;;0.40;;
19788;SDS011;10054;59.332;18.244;2023-04-30T05:19:21;0.60;;;0.60;;
19788;SDS011;10054;59.332;18.244;2023-04-30T05:21:51;0.47;;;0.47;;
19788;SDS011;10054;59.332;18.244;2023-04-30T05:24:20;0.50;;;0.50;;
19788;SDS011;10054;59.332;18.244;2023-04-30T05:26:49;0.97;;;0.60;;
19788;SDS011;10054;59.332;18.244;2023-04-30T05:29:18;0.50;;;0.50;;
19788;SDS011;10054;59.332;18.244;2023-04-30T05:31:46;1.67;;;0.47;;
19788;SDS011;10054;59.332;18.244;2023-04-30T05:34:15;0.50;;;0.50;;
19788;SDS011;10054;59.332;18.244;2023-04-30T05:36:44;0.87;;;0.60;;
19788;SDS011;10054;59.332;18.244;2023-04-30T05:39:13;0.50;;;0.50;;
19788;SDS011;10054;59.332;18.244;2023-04-30T05:41:41;1.37;;;0.60;;
19788;SDS011;10054;59.332;18.244;2023-04-30T05:44:10;0.63;;;0.50;;
19788;SDS011;10054;59.332;18.244;2023-04-30T05:46:39;3.73;;;0.60;;
19788;SDS011;10054;59.332;18.244;2023-04-30T05:49:08;0.83;;;0.60;;
19788;SDS011;10054;59.332;18.244;2023-04-30T05:51:36;0.50;;;0.50;;
19788;SDS011;10054;59.332;18.244;2023-04-30T05:54:05;0.50;;;0.50;;
19788;SDS011;10054;59.332;18.244;2023-04-30T05:56:34;1.53;;;0.53;;
19788;SDS011;10054;59.332;18.244;2023-04-30T05:59:03;0.50;;;0.50;;
19788;SDS011;10054;59.332;18.244;2023-04-30T06:01:32;0.60;;;0.60;;
19788;SDS011;10054;59.332;18.244;2023-04-30T06:04:01;0.53;;;0.53;;
19788;SDS011;10054;59.332;18.244;2023-04-30T06:06:31;0.70;;;0.70;;
19788;SDS011;10054;59.332;18.244;2023-04-30T06:08:59;1.27;;;0.73;;
19788;SDS011;10054;59.332;18.244;2023-04-30T06:11:29;1.67;;;0.57;;
19788;SDS011;10054;59.332;18.244;2023-04-30T06:13:58;0.77;;;0.53;;
19788;SDS011;10054;59.332;18.244;2023-04-30T06:16:27;0.60;;;0.60;;
19788;SDS011;10054;59.332;18.244;2023-04-30T06:18:56;0.60;;;0.60;;
19788;SDS011;10054;59.332;18.244;2023-04-30T06:21:25;0.73;;;0.60;;
19788;SDS011;10054;59.332;18.244;2023-04-30T06:23:54;1.03;;;0.60;;
19788;SDS011;10054;59.332;18.244;2023-04-30T06:26:22;0.77;;;0.63;;
19788;SDS011;10054;59.332;18.244;2023-04-30T06:28:52;0.50;;;0.50;;
19788;SDS011;10054;59.332;18.244;2023-04-30T06:31:21;0.87;;;0.73;;
19788;SDS011;10054;59.332;18.244;2023-04-30T06:33:50;0.60;;;0.60;;
19788;SDS011;10054;59.332;18.244;2023-04-30T06:36:19;0.73;;;0.60;;
19788;SDS011;10054;59.332;18.244;2023-04-30T06:38:48;0.70;;;0.60;;
19788;SDS011;10054;59.332;18.244;2023-04-30T06:41:17;2.17;;;0.80;;
19788;SDS011;10054;59.332;18.244;2023-04-30T06:43:46;0.57;;;0.53;;
19788;SDS011;10054;59.332;18.244;2023-04-30T06:46:15;0.50;;;0.50;;
19788;SDS011;10054;59.332;18.244;2023-04-30T06:48:43;1.20;;;0.60;;
19788;SDS011;10054;59.332;18.244;2023-04-30T06:51:12;2.67;;;0.60;;
19788;SDS011;10054;59.332;18.244;2023-04-30T06:53:41;0.80;;;0.70;;
19788;SDS011;10054;59.332;18.244;2023-04-30T06:56:10;0.50;;;0.50;;
19788;SDS011;10054;59.332;18.244;2023-04-30T06:58:38;0.50;;;0.50;;
19788;SDS011;10054;59.332;18.244;2023-04-30T07:01:08;0.60;;;0.60;;
19788;SDS011;10054;59.332;18.244;2023-04-30T07:03:36;0.70;;;0.70;;
19788;SDS011;10054;59.332;18.244;2023-04-30T07:06:05;0.83;;;0.70;;
19788;SDS011;10054;59.332;18.244;2023-04-30T07:08:34;0.67;;;0.67;;
19788;SDS011;10054;59.332;18.244;2023-04-30T07:11:04;2.40;;;0.60;;
19788;SDS011;10054;59.332;18.244;2023-04-30T07:13:33;0.53;;;0.53;;
19788;SDS011;10054;59.332;18.244;2023-04-30T07:16:02;1.63;;;0.60;;
19788;SDS011;10054;59.332;18.244;2023-04-30T07:18:32;0.97;;;0.77;;
19788;SDS011;10054;59.332;18.244;2023-04-30T07:21:01;0.50;;;0.50;;
19788;SDS011;10054;59.332;18.244;2023-04-30T07:23:30;0.97;;;0.83;;
19788;SDS011;10054;59.332;18.244;2023-04-30T07:25:58;0.80;;;0.80;;
19788;SDS011;10054;59.332;18.244;2023-04-30T07:28:27;0.50;;;0.50;;
19788;SDS011;10054;59.332;18.244;2023-04-30T07:30:56;0.73;;;0.70;;
19788;SDS011;10054;59.332;18.244;2023-04-30T07:33:24;0.50;;;0.50;;
19788;SDS011;10054;59.332;18.244;2023-04-30T07:35:53;0.73;;;0.70;;
19788;SDS011;10054;59.332;18.244;2023-04-30T07:38:24;0.67;;;0.60;;
19788;SDS011;10054;59.332;18.244;2023-04-30T07:40:53;1.20;;;0.70;;
19788;SDS011;10054;59.332;18.244;2023-04-30T07:43:22;0.70;;;0.70;;
19788;SDS011;10054;59.332;18.244;2023-04-30T07:45:51;1.90;;;0.80;;
19788;SDS011;10054;59.332;18.244;2023-04-30T07:48:20;0.80;;;0.80;;
19788;SDS011;10054;59.332;18.244;2023-04-30T07:50:49;0.83;;;0.80;;
19788;SDS011;10054;59.332;18.244;2023-04-30T07:53:18;0.70;;;0.70;;
19788;SDS011;10054;59.332;18.244;2023-04-30T07:55:47;0.60;;;0.60;;
19788;SDS011;10054;59.332;18.244;2023-04-30T07:58:15;1.07;;;0.70;;
19788;SDS011;10054;59.332;18.244;2023-04-30T08:00:44;2.53;;;0.87;;
19788;SDS011;10054;59.332;18.244;2023-04-30T08:03:13;1.23;;;1.13;;
19788;SDS011;10054;59.332;18.244;2023-04-30T08:05:42;2.17;;;1.00;;
19788;SDS011;10054;59.332;18.244;2023-04-30T08:08:11;1.33;;;0.90;;
19788;SDS011;10054;59.332;18.244;2023-04-30T08:10:40;1.03;;;0.70;;
19788;SDS011;10054;59.332;18.244;2023-04-30T08:13:09;1.40;;;0.67;;
19788;SDS011;10054;59.332;18.244;2023-04-30T08:15:38;0.83;;;0.83;;
19788;SDS011;10054;59.332;18.244;2023-04-30T08:18:08;1.33;;;1.23;;
19788;SDS011;10054;59.332;18.244;2023-04-30T08:20:36;2.63;;;1.07;;
19788;SDS011;10054;59.332;18.244;2023-04-30T08:23:05;0.93;;;0.93;;
19788;SDS011;10054;59.332;18.244;2023-04-30T08:25:34;1.33;;;0.90;;
19788;SDS011;10054;59.332;18.244;2023-04-30T08:28:03;2.07;;;0.80;;
19788;SDS011;10054;59.332;18.244;2023-04-30T08:30:33;2.80;;;0.97;;
19788;SDS011;10054;59.332;18.244;2023-04-30T08:33:02;0.70;;;0.70;;
19788;SDS011;10054;59.332;18.244;2023-04-30T08:35:30;0.70;;;0.70;;
19788;SDS011;10054;59.332;18.244;2023-04-30T08:37:59;0.80;;;0.80;;
19788;SDS011;10054;59.332;18.244;2023-04-30T08:40:29;1.60;;;1.10;;
19788;SDS011;10054;59.332;18.244;2023-04-30T08:43:03;0.90;;;0.80;;
19788;SDS011;10054;59.332;18.244;2023-04-30T08:45:37;0.70;;;0.70;;
19788;SDS011;10054;59.332;18.244;2023-04-30T08:48:09;0.70;;;0.70;;
19788;SDS011;10054;59.332;18.244;2023-04-30T08:50:41;0.90;;;0.70;;
19788;SDS011;10054;59.332;18.244;2023-04-30T08:53:10;0.60;;;0.60;;
19788;SDS011;10054;59.332;18.244;2023-04-30T08:55:41;0.83;;;0.77;;
19788;SDS011;10054;59.332;18.244;2023-04-30T08:58:10;0.70;;;0.70;;
19788;SDS011;10054;59.332;18.244;2023-04-30T09:00:39;1.00;;;1.00;;
19788;SDS011;10054;59.332;18.244;2023-04-30T09:03:08;1.70;;;1.23;;
19788;SDS011;10054;59.332;18.244;2023-04-30T09:05:37;1.53;;;1.37;;
19788;SDS011;10054;59.332;18.244;2023-04-30T09:08:06;0.83;;;0.83;;
19788;SDS011;10054;59.332;18.244;2023-04-30T09:10:36;1.27;;;0.90;;
19788;SDS011;10054;59.332;18.244;2023-04-30T09:13:05;1.87;;;0.70;;
19788;SDS011;10054;59.332;18.244;2023-04-30T09:15:36;1.30;;;1.20;;
19788;SDS011;10054;59.332;18.244;2023-04-30T09:18:07;1.20;;;1.10;;
19788;SDS011;10054;59.332;18.244;2023-04-30T09:20:52;0.70;;;0.70;;
19788;SDS011;10054;59.332;18.244;2023-04-30T09:23:12;1.10;;;1.10;;
19788;SDS011;10054;59.332;18.244;2023-04-30T09:25:42;0.90;;;0.90;;
19788;SDS011;10054;59.332;18.244;2023-04-30T09:28:11;1.20;;;1.07;;
19788;SDS011;10054;59.332;18.244;2023-04-30T09:30:41;0.87;;;0.87;;
19788;SDS011;10054;59.332;18.244;2023-04-30T09:33:10;1.23;;;1.13;;
19788;SDS011;10054;59.332;18.244;2023-04-30T09:35:39;1.30;;;1.20;;
19788;SDS011;10054;59.332;18.244;2023-04-30T09:38:23;2.57;;;1.90;;
19788;SDS011;10054;59.332;18.244;2023-04-30T09:40:58;2.67;;;1.67;;
19788;SDS011;10054;59.332;18.244;2023-04-30T09:43:28;1.60;;;1.50;;
19788;SDS011;10054;59.332;18.244;2023-04-30T09:45:57;1.77;;;1.67;;
19788;SDS011;10054;59.332;18.244;2023-04-30T09:48:27;2.10;;;1.00;;
19788;SDS011;10054;59.332;18.244;2023-04-30T09:50:55;1.07;;;1.07;;
19788;SDS011;10054;59.332;18.244;2023-04-30T09:53:25;1.00;;;1.00;;
19788;SDS011;10054;59.332;18.244;2023-04-30T09:55:54;1.17;;;1.10;;
19788;SDS011;10054;59.332;18.244;2023-04-30T09:58:24;1.87;;;0.97;;
19788;SDS011;10054;59.332;18.244;2023-04-30T10:00:57;2.20;;;1.30;;
19788;SDS011;10054;59.332;18.244;2023-04-30T10:03:26;1.10;;;0.87;;
19788;SDS011;10054;59.332;18.244;2023-04-30T10:05:56;0.90;;;0.90;;
19788;SDS011;10054;59.332;18.244;2023-04-30T10:08:26;1.10;;;1.00;;
19788;SDS011;10054;59.332;18.244;2023-04-30T10:11:03;1.27;;;1.10;;
19788;SDS011;10054;59.332;18.244;2023-04-30T10:13:37;1.77;;;1.60;;
19788;SDS011;10054;59.332;18.244;2023-04-30T10:16:11;1.57;;;1.20;;
19788;SDS011;10054;59.332;18.244;2023-04-30T10:18:43;1.53;;;1.10;;
19788;SDS011;10054;59.332;18.244;2023-04-30T10:21:15;0.90;;;0.90;;
19788;SDS011;10054;59.332;18.244;2023-04-30T10:23:47;0.97;;;0.97;;
19788;SDS011;10054;59.332;18.244;2023-04-30T10:26:16;1.53;;;0.90;;
19788;SDS011;10054;59.332;18.244;2023-04-30T10:28:47;1.40;;;1.07;;
19788;SDS011;10054;59.332;18.244;2023-04-30T10:31:16;1.07;;;0.90;;
19788;SDS011;10054;59.332;18.244;2023-04-30T10:33:55;1.00;;;0.90;;
19788;SDS011;10054;59.332;18.244;2023-04-30T10:36:58;2.63;;;0.90;;
19788;SDS011;10054;59.332;18.244;2023-04-30T10:39:28;0.80;;;0.80;;
19788;SDS011;10054;59.332;18.244;2023-04-30T10:42:02;1.13;;;0.80;;
19788;SDS011;10054;59.332;18.244;2023-04-30T10:44:35;0.80;;;0.80;;
19788;SDS011;10054;59.332;18.244;2023-04-30T10:47:06;0.90;;;0.77;;
19788;SDS011;10054;59.332;18.244;2023-04-30T10:49:35;0.70;;;0.70;;
19788;SDS011;10054;59.332;18.244;2023-04-30T10:52:05;2.07;;;0.87;;
19788;SDS011;10054;59.332;18.244;2023-04-30T10:54:34;1.07;;;1.00;;
19788;SDS011;10054;59.332;18.244;2023-04-30T10:57:10;1.10;;;0.83;;
19788;SDS011;10054;59.332;18.244;2023-04-30T11:02:20;1.87;;;0.90;;
19788;SDS011;10054;59.332;18.244;2023-04-30T11:07:48;0.70;;;0.70;;
19788;SDS011;10054;59.332;18.244;2023-04-30T11:10:22;1.80;;;0.80;;
19788;SDS011;10054;59.332;18.244;2023-04-30T11:12:54;2.67;;;0.80;;
19788;SDS011;10054;59.332;18.244;2023-04-30T11:15:26;0.80;;;0.80;;
19788;SDS011;10054;59.332;18.244;2023-04-30T11:17:57;2.03;;;0.80;;
19788;SDS011;10054;59.332;18.244;2023-04-30T11:20:26;0.87;;;0.60;;
19788;SDS011;10054;59.332;18.244;2023-04-30T11:23:14;1.00;;;0.90;;
19788;SDS011;10054;59.332;18.244;2023-04-30T11:25:44;0.90;;;0.90;;
19788;SDS011;10054;59.332;18.244;2023-04-30T11:28:18;0.70;;;0.70;;
19788;SDS011;10054;59.332;18.244;2023-04-30T11:30:54;2.00;;;0.70;;
19788;SDS011;10054;59.332;18.244;2023-04-30T11:33:26;0.60;;;0.60;;
19788;SDS011;10054;59.332;18.244;2023-04-30T11:35:57;0.90;;;0.60;;
19788;SDS011;10054;59.332;18.244;2023-04-30T11:38:32;1.07;;;0.70;;
19788;SDS011;10054;59.332;18.244;2023-04-30T11:41:03;0.77;;;0.70;;
19788;SDS011;10054;59.332;18.244;2023-04-30T11:43:33;1.00;;;0.70;;
19788;SDS011;10054;59.332;18.244;2023-04-30T11:46:08;0.60;;;0.60;;
19788;SDS011;10054;59.332;18.244;2023-04-30T11:48:40;2.30;;;0.60;;
19788;SDS011;10054;59.332;18.244;2023-04-30T11:51:17;1.30;;;0.60;;
19788;SDS011;10054;59.332;18.244;2023-04-30T11:53:47;2.20;;;0.47;;
19788;SDS011;10054;59.332;18.244;2023-04-30T11:56:21;1.13;;;0.53;;
19788;SDS011;10054;59.332;18.244;2023-04-30T11:58:51;0.60;;;0.60;;
19788;SDS011;10054;59.332;18.244;2023-04-30T12:01:21;0.57;;;0.57;;
19788;SDS011;10054;59.332;18.244;2023-04-30T12:03:54;1.50;;;0.60;;
19788;SDS011;10054;59.332;18.244;2023-04-30T12:06:25;1.90;;;0.70;;
19788;SDS011;10054;59.332;18.244;2023-04-30T12:08:55;0.60;;;0.60;;
19788;SDS011;10054;59.332;18.244;2023-04-30T12:11:25;0.73;;;0.73;;
19788;SDS011;10054;59.332;18.244;2023-04-30T12:14:05;0.60;;;0.60;;
19788;SDS011;10054;59.332;18.244;2023-04-30T12:16:42;1.13;;;0.70;;
19788;SDS011;10054;59.332;18.244;2023-04-30T12:19:13;0.63;;;0.60;;
19788;SDS011;10054;59.332;18.244;2023-04-30T12:21:43;0.70;;;0.70;;
19788;SDS011;10054;59.332;18.244;2023-04-30T12:24:18;0.90;;;0.90;;
19788;SDS011;10054;59.332;18.244;2023-04-30T12:26:44;2.33;;;0.60;;
19788;SDS011;10054;59.332;18.244;2023-04-30T12:29:14;0.70;;;0.70;;
19788;SDS011;10054;59.332;18.244;2023-04-30T12:31:44;0.50;;;0.50;;
19788;SDS011;10054;59.332;18.244;2023-04-30T12:34:16;0.83;;;0.70;;
19788;SDS011;10054;59.332;18.244;2023-04-30T12:36:45;1.47;;;0.90;;
19788;SDS011;10054;59.332;18.244;2023-04-30T12:39:14;1.27;;;0.90;;
19788;SDS011;10054;59.332;18.244;2023-04-30T12:41:44;0.80;;;0.80;;
19788;SDS011;10054;59.332;18.244;2023-04-30T12:44:17;0.67;;;0.63;;
19788;SDS011;10054;59.332;18.244;2023-04-30T12:46:48;0.60;;;0.60;;
19788;SDS011;10054;59.332;18.244;2023-04-30T12:49:23;0.60;;;0.60;;
19788;SDS011;10054;59.332;18.244;2023-04-30T12:51:57;0.90;;;0.63;;
19788;SDS011;10054;59.332;18.244;2023-04-30T12:54:27;1.00;;;1.00;;
19788;SDS011;10054;59.332;18.244;2023-04-30T12:56:58;2.93;;;0.60;;
19788;SDS011;10054;59.332;18.244;2023-04-30T12:59:38;1.57;;;0.53;;
19788;SDS011;10054;59.332;18.244;2023-04-30T13:02:09;3.13;;;0.50;;
19788;SDS011;10054;59.332;18.244;2023-04-30T13:04:40;0.60;;;0.60;;
19788;SDS011;10054;59.332;18.244;2023-04-30T13:07:10;1.20;;;0.53;;
19788;SDS011;10054;59.332;18.244;2023-04-30T13:09:39;1.37;;;0.70;;
19788;SDS011;10054;59.332;18.244;2023-04-30T13:12:08;0.63;;;0.63;;
19788;SDS011;10054;59.332;18.244;2023-04-30T13:14:36;0.60;;;0.60;;
19788;SDS011;10054;59.332;18.244;2023-04-30T13:17:05;0.80;;;0.80;;
19788;SDS011;10054;59.332;18.244;2023-04-30T13:19:36;0.60;;;0.60;;
19788;SDS011;10054;59.332;18.244;2023-04-30T13:22:05;0.60;;;0.60;;
19788;SDS011;10054;59.332;18.244;2023-04-30T13:24:34;0.60;;;0.60;;
19788;SDS011;10054;59.332;18.244;2023-04-30T13:27:02;1.37;;;0.50;;
19788;SDS011;10054;59.332;18.244;2023-04-30T13:29:31;0.97;;;0.57;;
19788;SDS011;10054;59.332;18.244;2023-04-30T13:32:00;0.90;;;0.60;;
19788;SDS011;10054;59.332;18.244;2023-04-30T13:34:29;0.60;;;0.50;;
19788;SDS011;10054;59.332;18.244;2023-04-30T13:36:58;0.50;;;0.50;;
19788;SDS011;10054;59.332;18.244;2023-04-30T13:39:27;0.57;;;0.57;;
19788;SDS011;10054;59.332;18.244;2023-04-30T13:41:56;0.60;;;0.60;;
19788;SDS011;10054;59.332;18.244;2023-04-30T13:44:25;0.60;;;0.60;;
19788;SDS011;10054;59.332;18.244;2023-04-30T13:46:54;0.60;;;0.60;;
19788;SDS011;10054;59.332;18.244;2023-04-30T13:49:22;0.50;;;0.50;;
19788;SDS011;10054;59.332;18.244;2023-04-30T13:51:51;0.60;;;0.60;;
19788;SDS011;10054;59.332;18.244;2023-04-30T13:54:20;0.60;;;0.60;;
19788;SDS011;10054;59.332;18.244;2023-04-30T13:56:49;1.13;;;0.70;;
19788;SDS011;10054;59.332;18.244;2023-04-30T13:59:18;0.70;;;0.70;;
19788;SDS011;10054;59.332;18.244;2023-04-30T14:01:46;0.63;;;0.63;;
19788;SDS011;10054;59.332;18.244;2023-04-30T14:04:15;1.00;;;0.70;;
19788;SDS011;10054;59.332;18.244;2023-04-30T14:06:44;0.73;;;0.60;;
19788;SDS011;10054;59.332;18.244;2023-04-30T14:09:14;2.00;;;0.70;;
19788;SDS011;10054;59.332;18.244;2023-04-30T14:11:44;0.60;;;0.60;;
19788;SDS011;10054;59.332;18.244;2023-04-30T14:14:12;0.50;;;0.50;;
19788;SDS011;10054;59.332;18.244;2023-04-30T14:16:42;0.50;;;0.50;;
19788;SDS011;10054;59.332;18.244;2023-04-30T14:19:11;0.40;;;0.40;;
19788;SDS011;10054;59.332;18.244;2023-04-30T14:21:39;0.67;;;0.67;;
19788;SDS011;10054;59.332;18.244;2023-04-30T14:24:08;0.60;;;0.60;;
19788;SDS011;10054;59.332;18.244;2023-04-30T14:26:38;0.40;;;0.40;;
19788;SDS011;10054;59.332;18.244;2023-04-30T14:29:07;0.50;;;0.50;;
19788;SDS011;10054;59.332;18.244;2023-04-30T14:31:36;0.50;;;0.50;;
19788;SDS011;10054;59.332;18.244;2023-04-30T14:34:04;0.50;;;0.50;;
19788;SDS011;10054;59.332;18.244;2023-04-30T14:36:33;0.57;;;0.50;;
19788;SDS011;10054;59.332;18.244;2023-04-30T14:39:03;0.47;;;0.47;;
19788;SDS011;10054;59.332;18.244;2023-04-30T14:41:33;1.23;;;0.40;;
19788;SDS011;10054;59.332;18.244;2023-04-30T14:44:03;0.47;;;0.47;;
19788;SDS011;10054;59.332;18.244;2023-04-30T14:46:32;0.60;;;0.40;;
19788;SDS011;10054;59.332;18.244;2023-04-30T14:49:01;0.60;;;0.60;;
19788;SDS011;10054;59.332;18.244;2023-04-30T14:51:30;0.50;;;0.50;;
19788;SDS011;10054;59.332;18.244;2023-04-30T14:53:59;0.53;;;0.53;;
19788;SDS011;10054;59.332;18.244;2023-04-30T14:56:28;0.83;;;0.83;;
19788;SDS011;10054;59.332;18.244;2023-04-30T14:58:57;1.03;;;0.60;;
19788;SDS011;10054;59.332;18.244;2023-04-30T15:01:26;0.70;;;0.70;;
19788;SDS011;10054;59.332;18.244;2023-04-30T15:03:55;0.60;;;0.60;;
19788;SDS011;10054;59.332;18.244;2023-04-30T15:06:24;0.60;;;0.60;;